createdAt,value
2022-12-25T00:01:13.809Z,88.50
2022-12-25T00:04:03.467Z,84.20
2022-12-25T00:06:46.280Z,84.50
2022-12-25T00:12:12.047Z,94.60
2022-12-25T00:14:54.850Z,96.90
2022-12-25T00:20:20.742Z,100.50
2022-12-25T00:23:03.571Z,109.40
2022-12-25T00:25:46.384Z,107.20
2022-12-25T00:31:14.894Z,103.70
2022-12-25T00:33:58.140Z,103.20
2022-12-25T00:36:43.908Z,91.60
2022-12-25T00:39:26.824Z,77.00
2022-12-25T00:42:20.291Z,77.00
2022-12-25T00:45:03.381Z,78.20
2022-12-25T00:47:46.205Z,76.50
2022-12-25T00:53:11.761Z,80.90
2022-12-25T00:58:41.612Z,84.30
2022-12-25T01:01:24.741Z,77.80
2022-12-25T01:04:08.906Z,71.70
2022-12-25T01:06:51.716Z,67.50
2022-12-25T01:09:53.287Z,73.60
2022-12-25T01:12:39.639Z,61.00
2022-12-25T01:15:22.478Z,56.60
2022-12-25T01:18:07.945Z,65.50
2022-12-25T01:20:51.673Z,66.10
2022-12-25T01:23:35.552Z,66.20
2022-12-25T01:26:20.226Z,55.90
2022-12-25T01:29:03.056Z,54.10
2022-12-25T01:31:46.022Z,55.00
2022-12-25T01:34:28.945Z,53.20
2022-12-25T01:37:11.810Z,48.90
2022-12-25T01:39:54.847Z,50.40
2022-12-25T01:42:38.069Z,53.90
2022-12-25T01:45:27.101Z,54.20
2022-12-25T01:48:19.441Z,57.50
2022-12-25T01:51:06.943Z,55.10
2022-12-25T01:53:53.471Z,52.90
2022-12-25T01:56:37.883Z,56.00
2022-12-25T01:59:25.030Z,53.30
2022-12-25T02:02:08.590Z,55.60
2022-12-25T02:05:01.357Z,55.10
2022-12-25T02:07:46.539Z,57.20
2022-12-25T02:10:29.753Z,57.40
2022-12-25T02:13:15.751Z,53.30
2022-12-25T02:16:09.684Z,56.40
2022-12-25T02:18:58.649Z,45.90
2022-12-25T02:21:52.278Z,49.30
2022-12-25T02:24:57.537Z,49.10
2022-12-25T02:28:04.914Z,54.60
2022-12-25T02:30:55.215Z,50.10
2022-12-25T02:34:05.540Z,50.50
2022-12-25T02:37:01.629Z,46.90
2022-12-25T02:39:57.990Z,45.60
2022-12-25T02:43:16.936Z,39.90
2022-12-25T02:46:40.528Z,42.60
2022-12-25T02:52:48.758Z,37.00
2022-12-25T02:55:57.870Z,42.90
2022-12-25T02:59:01.712Z,39.10
2022-12-25T03:02:05.039Z,41.90
2022-12-25T03:05:10.160Z,36.60
2022-12-25T03:07:57.596Z,40.50
2022-12-25T03:11:03.718Z,42.00
2022-12-25T03:13:51.562Z,34.60
2022-12-25T03:16:54.147Z,37.90
2022-12-25T03:23:01.579Z,38.90
2022-12-25T03:26:03.358Z,41.10
2022-12-25T03:28:46.150Z,42.60
2022-12-25T03:31:52.913Z,43.20
2022-12-25T03:35:02.965Z,34.90
2022-12-25T03:38:14.675Z,36.20
2022-12-25T03:41:26.509Z,39.10
2022-12-25T03:44:40.009Z,31.30
2022-12-25T03:47:35.293Z,34.40
2022-12-25T03:50:42.315Z,31.80
2022-12-25T03:53:58.743Z,28.20
2022-12-25T03:57:01.753Z,31.10
2022-12-25T04:03:11.603Z,27.70
2022-12-25T04:06:13.498Z,32.60
2022-12-25T04:09:14.791Z,28.50
2022-12-25T04:12:16.757Z,32.20
2022-12-25T04:15:18.360Z,31.90
2022-12-25T04:18:24.480Z,27.60
2022-12-25T04:21:25.906Z,28.10
2022-12-25T04:24:28.779Z,33.30
2022-12-25T04:27:30.310Z,42.00
2022-12-25T04:30:31.964Z,36.60
2022-12-25T04:33:33.665Z,34.90
2022-12-25T04:36:16.487Z,33.40
2022-12-25T04:38:59.428Z,35.30
2022-12-25T04:41:42.328Z,37.20
2022-12-25T04:44:25.267Z,43.70
2022-12-25T04:47:11.519Z,36.90
2022-12-25T04:49:54.981Z,34.60
2022-12-25T04:52:40.079Z,34.80
2022-12-25T04:55:22.977Z,38.00
2022-12-25T04:58:06.868Z,33.80
2022-12-25T05:00:49.808Z,36.40
2022-12-25T05:03:33.435Z,41.00
2022-12-25T05:06:16.664Z,36.60
2022-12-25T05:09:00.587Z,42.40
2022-12-25T05:11:43.517Z,39.80
2022-12-25T05:14:26.486Z,38.70
2022-12-25T05:17:09.565Z,39.10
2022-12-25T05:19:52.396Z,45.30
2022-12-25T05:22:35.275Z,42.70
2022-12-25T05:25:18.222Z,40.70
2022-12-25T05:28:01.104Z,45.80
2022-12-25T05:30:44.359Z,42.80
2022-12-25T05:33:27.309Z,38.80
2022-12-25T05:36:12.232Z,36.10
2022-12-25T05:38:55.293Z,38.90
2022-12-25T05:41:38.239Z,39.20
2022-12-25T05:44:21.494Z,44.50
2022-12-25T05:47:04.541Z,48.10
2022-12-25T05:49:49.643Z,41.00
2022-12-25T05:52:34.422Z,40.40
2022-12-25T05:55:17.329Z,39.80
2022-12-25T05:58:00.228Z,42.00
2022-12-25T06:00:45.601Z,44.50
2022-12-25T06:03:29.971Z,44.80
2022-12-25T06:06:13.943Z,47.50
2022-12-25T06:08:56.859Z,39.50
2022-12-25T06:11:40.587Z,49.30
2022-12-25T06:14:24.573Z,44.70
2022-12-25T06:17:07.494Z,49.40
2022-12-25T06:19:50.506Z,42.40
2022-12-25T06:22:34.161Z,41.40
2022-12-25T06:25:17.307Z,42.10
2022-12-25T06:28:00.220Z,40.40
2022-12-25T06:30:43.260Z,40.10
2022-12-25T06:33:26.208Z,41.30
2022-12-25T06:36:21.253Z,38.30
2022-12-25T06:39:04.770Z,35.00
2022-12-25T06:41:48.135Z,37.20
2022-12-25T06:44:31.148Z,32.70
2022-12-25T06:47:14.081Z,30.90
2022-12-25T06:49:56.913Z,34.20
2022-12-25T06:52:39.729Z,35.50
2022-12-25T06:55:22.649Z,32.80
2022-12-25T06:58:05.460Z,31.80
2022-12-25T07:00:48.445Z,29.60
2022-12-25T07:03:31.570Z,34.00
2022-12-25T07:06:15.306Z,29.00
2022-12-25T07:08:58.633Z,28.70
2022-12-25T07:11:41.567Z,32.90
2022-12-25T07:14:24.791Z,31.60
2022-12-25T07:17:07.799Z,28.70
2022-12-25T07:19:51.492Z,29.60
2022-12-25T07:22:34.531Z,28.80
2022-12-25T07:25:18.403Z,28.60
2022-12-25T07:28:01.292Z,28.10
2022-12-25T07:30:44.342Z,26.70
2022-12-25T07:33:27.420Z,23.50
2022-12-25T07:36:12.870Z,28.70
2022-12-25T07:38:56.831Z,29.00
2022-12-25T07:41:40.490Z,27.60
2022-12-25T07:44:30.040Z,27.60
2022-12-25T07:47:15.091Z,25.10
2022-12-25T07:49:58.024Z,28.20
2022-12-25T07:52:43.615Z,24.70
2022-12-25T07:55:26.907Z,30.70
2022-12-25T07:58:09.750Z,29.70
2022-12-25T08:00:52.907Z,28.90
2022-12-25T08:03:36.778Z,27.30
2022-12-25T08:06:21.270Z,25.60
2022-12-25T08:09:13.556Z,28.20
2022-12-25T08:11:56.470Z,27.20
2022-12-25T08:14:39.461Z,27.50
2022-12-25T08:17:22.305Z,26.30
2022-12-25T08:20:08.741Z,27.90
2022-12-25T08:22:51.587Z,23.20
2022-12-25T08:25:37.293Z,26.10
2022-12-25T08:28:20.106Z,33.30
2022-12-25T08:31:08.085Z,25.80
2022-12-25T08:33:54.502Z,25.10
2022-12-25T08:36:38.258Z,28.60
2022-12-25T08:39:21.136Z,27.60
2022-12-25T08:42:04.193Z,27.40
2022-12-25T08:44:47.069Z,30.70
2022-12-25T08:47:30.429Z,26.40
2022-12-25T08:50:13.351Z,28.40
2022-12-25T08:52:56.369Z,29.60
2022-12-25T08:55:39.480Z,27.90
2022-12-25T08:58:22.292Z,30.10
2022-12-25T09:01:05.974Z,27.50
2022-12-25T09:03:49.167Z,27.80
2022-12-25T09:06:32.499Z,27.40
2022-12-25T09:09:17.767Z,27.80
2022-12-25T09:12:00.734Z,27.30
2022-12-25T09:14:44.694Z,31.80
2022-12-25T09:17:27.971Z,39.80
2022-12-25T09:20:11.036Z,26.10
2022-12-25T09:22:53.952Z,28.60
2022-12-25T09:25:36.864Z,29.40
2022-12-25T09:28:20.150Z,30.00
2022-12-25T09:31:03.747Z,31.40
2022-12-25T09:33:46.743Z,27.60
2022-12-25T09:36:29.672Z,35.10
2022-12-25T09:39:14.825Z,30.30
2022-12-25T09:42:09.831Z,33.50
2022-12-25T09:44:59.287Z,29.50
2022-12-25T09:47:46.938Z,29.90
2022-12-25T09:50:46.374Z,28.60
2022-12-25T09:53:39.657Z,31.20
2022-12-25T09:56:25.976Z,27.90
2022-12-25T09:59:27.406Z,28.80
2022-12-25T10:02:40.119Z,35.90
2022-12-25T10:05:38.252Z,28.50
2022-12-25T10:08:47.887Z,30.50
2022-12-25T10:11:48.668Z,33.40
2022-12-25T10:14:38.719Z,33.00
2022-12-25T10:17:30.404Z,31.60
2022-12-25T10:20:34.709Z,32.60
2022-12-25T10:23:41.026Z,33.30
2022-12-25T10:26:26.648Z,30.70
2022-12-25T10:29:16.073Z,35.00
2022-12-25T10:31:59.479Z,31.20
2022-12-25T10:34:43.687Z,32.60
2022-12-25T10:37:26.674Z,33.70
2022-12-25T10:40:29.006Z,35.00
2022-12-25T10:43:17.964Z,37.80
2022-12-25T10:46:00.912Z,32.30
2022-12-25T10:48:58.110Z,30.70
2022-12-25T10:51:41.028Z,32.30
2022-12-25T10:54:30.790Z,29.00
2022-12-25T10:57:19.364Z,29.90
2022-12-25T11:00:08.463Z,30.70
2022-12-25T11:02:51.868Z,27.80
2022-12-25T11:05:37.225Z,27.60
2022-12-25T11:08:27.682Z,24.40
2022-12-25T11:11:19.773Z,29.70
2022-12-25T11:14:03.269Z,28.90
2022-12-25T11:16:47.248Z,27.20
2022-12-25T11:19:32.695Z,27.30
2022-12-25T11:22:19.036Z,27.40
2022-12-25T11:25:13.923Z,26.40
2022-12-25T11:28:02.681Z,27.60
2022-12-25T11:30:55.250Z,24.10
2022-12-25T11:33:45.283Z,25.40
2022-12-25T11:36:46.982Z,27.90
2022-12-25T11:39:35.988Z,27.40
2022-12-25T11:42:37.825Z,30.90
2022-12-25T11:45:38.304Z,28.50
2022-12-25T11:48:36.816Z,25.00
2022-12-25T11:51:20.640Z,27.20
2022-12-25T11:54:25.357Z,23.40
2022-12-25T11:57:11.752Z,30.90
2022-12-25T12:00:06.826Z,26.40
2022-12-25T12:03:11.778Z,34.40
2022-12-25T12:06:03.372Z,28.70
2022-12-25T12:08:52.553Z,30.40
2022-12-25T12:11:50.805Z,33.10
2022-12-25T12:14:58.876Z,30.50
2022-12-25T12:17:41.801Z,33.80
2022-12-25T12:20:34.683Z,27.30
2022-12-25T12:26:00.965Z,35.60
2022-12-25T12:28:46.012Z,33.00
2022-12-25T12:31:48.789Z,39.10
2022-12-25T12:34:42.535Z,37.70
2022-12-25T12:37:32.619Z,33.00
2022-12-25T12:40:37.980Z,40.80
2022-12-25T12:43:41.891Z,41.40
2022-12-25T12:46:30.592Z,44.70
2022-12-25T12:49:26.743Z,49.00
2022-12-25T12:52:33.510Z,41.40
2022-12-25T12:55:16.953Z,50.80
2022-12-25T12:58:05.668Z,48.90
2022-12-25T13:00:55.562Z,46.60
2022-12-25T13:03:42.657Z,44.30
2022-12-25T13:06:41.066Z,57.80
2022-12-25T13:09:24.035Z,49.70
2022-12-25T13:12:10.847Z,50.60
2022-12-25T13:14:54.062Z,37.90
2022-12-25T13:17:37.685Z,40.00
2022-12-25T13:20:30.380Z,50.60
2022-12-25T13:23:35.013Z,40.30
2022-12-25T13:26:18.641Z,49.10
2022-12-25T13:29:03.926Z,50.00
2022-12-25T13:31:51.090Z,55.20
2022-12-25T13:34:43.501Z,57.30
2022-12-25T13:37:30.324Z,54.20
2022-12-25T13:40:22.114Z,59.00
2022-12-25T13:43:11.700Z,56.50
2022-12-25T13:45:55.191Z,57.40
2022-12-25T13:48:38.217Z,53.00
2022-12-25T13:51:21.137Z,54.10
2022-12-25T13:54:10.525Z,62.70
2022-12-25T13:56:55.515Z,62.10
2022-12-25T13:59:38.996Z,62.10
2022-12-25T14:02:28.631Z,65.30
2022-12-25T14:05:41.748Z,68.90
2022-12-25T14:08:29.106Z,70.00
2022-12-25T14:11:15.642Z,68.20
2022-12-25T14:14:02.472Z,63.70
2022-12-25T14:16:49.452Z,60.10
2022-12-25T14:19:34.960Z,55.90
2022-12-25T14:22:21.854Z,46.40
2022-12-25T14:25:15.221Z,54.80
2022-12-25T14:27:58.430Z,55.20
2022-12-25T14:30:42.676Z,55.80
2022-12-25T14:33:26.814Z,59.00
2022-12-25T14:36:13.326Z,63.30
2022-12-25T14:39:02.127Z,62.20
2022-12-25T14:41:53.225Z,65.90
2022-12-25T14:44:41.531Z,61.60
2022-12-25T14:47:24.853Z,60.50
2022-12-25T14:50:24.639Z,60.00
2022-12-25T14:53:19.423Z,57.90
2022-12-25T14:56:04.174Z,58.80
2022-12-25T14:58:50.804Z,58.40
2022-12-25T15:01:41.818Z,53.90
2022-12-25T15:04:26.734Z,56.80
2022-12-25T15:07:30.081Z,48.80
2022-12-25T15:10:57.702Z,43.50
2022-12-25T15:13:19.683Z,48.20
2022-12-25T15:16:13.216Z,54.90
2022-12-25T15:18:57.443Z,51.80
2022-12-25T15:21:40.508Z,58.20
2022-12-25T15:24:23.688Z,62.00
2022-12-25T15:27:18.229Z,78.90
2022-12-25T15:30:10.090Z,88.40
2022-12-25T15:32:54.783Z,75.20
2022-12-25T15:35:39.151Z,75.60
2022-12-25T15:38:23.073Z,85.20
2022-12-25T15:41:33.815Z,86.10
2022-12-25T15:44:17.355Z,92.00
2022-12-25T15:47:00.194Z,90.60
2022-12-25T15:49:43.593Z,95.10
2022-12-25T15:52:26.608Z,97.20
2022-12-25T15:55:10.197Z,91.70
2022-12-25T15:57:54.794Z,96.60
2022-12-25T16:00:37.605Z,90.10
2022-12-25T16:03:20.513Z,91.10
2022-12-25T16:06:03.533Z,85.80
2022-12-25T16:08:47.486Z,100.90
2022-12-25T16:11:30.719Z,94.00
2022-12-25T16:14:14.144Z,91.00
2022-12-25T16:16:57.024Z,85.40
2022-12-25T16:19:39.942Z,82.60
2022-12-25T16:22:27.557Z,76.70
2022-12-25T16:25:15.191Z,84.10
2022-12-25T16:27:58.135Z,70.90
2022-12-25T16:30:41.943Z,71.90
2022-12-25T16:33:26.293Z,79.70
2022-12-25T16:36:09.604Z,75.40
2022-12-25T16:38:53.437Z,70.40
2022-12-25T16:41:36.741Z,68.10
2022-12-25T16:44:20.310Z,64.70
2022-12-25T16:47:03.676Z,67.30
2022-12-25T16:49:50.141Z,65.60
2022-12-25T16:52:34.965Z,73.20
2022-12-25T16:55:26.300Z,70.60
2022-12-25T16:58:12.929Z,68.90
2022-12-25T17:01:03.607Z,75.90
2022-12-25T17:03:47.447Z,78.30
2022-12-25T17:06:30.351Z,82.00
2022-12-25T17:09:13.569Z,69.20
2022-12-25T17:11:56.468Z,76.30
2022-12-25T17:14:39.779Z,73.30
2022-12-25T17:17:22.783Z,77.10
2022-12-25T17:20:06.753Z,79.40
2022-12-25T17:22:50.161Z,77.60
2022-12-25T17:25:33.700Z,72.60
2022-12-25T17:28:16.520Z,76.30
2022-12-25T17:31:04.680Z,71.00
2022-12-25T17:33:47.860Z,76.20
2022-12-25T17:36:31.910Z,80.90
2022-12-25T17:39:14.837Z,81.70
2022-12-25T17:41:57.837Z,77.40
2022-12-25T17:44:40.876Z,82.60
2022-12-25T17:47:23.675Z,81.90
2022-12-25T17:50:07.391Z,82.70
2022-12-25T17:52:50.226Z,82.00
2022-12-25T17:55:36.595Z,85.50
2022-12-25T17:58:19.416Z,81.40
2022-12-25T18:01:15.479Z,75.70
2022-12-25T18:04:02.061Z,83.00
2022-12-25T18:06:45.661Z,78.40
2022-12-25T18:09:29.165Z,78.80
2022-12-25T18:12:13.186Z,81.80
2022-12-25T18:14:56.031Z,77.60
2022-12-25T18:17:39.265Z,79.30
2022-12-25T18:20:22.084Z,81.50
2022-12-25T18:23:04.996Z,78.20
2022-12-25T18:25:48.309Z,82.00
2022-12-25T18:28:31.981Z,81.60
2022-12-25T18:31:17.935Z,82.20
2022-12-25T18:34:01.347Z,86.20
2022-12-25T18:36:45.386Z,82.20
2022-12-25T18:39:32.750Z,78.20
2022-12-25T18:42:34.366Z,78.80
2022-12-25T18:45:20.830Z,77.50
2022-12-25T18:48:06.283Z,75.80
2022-12-25T18:50:56.519Z,75.30
2022-12-25T18:53:39.611Z,76.10
2022-12-25T18:56:23.701Z,72.80
2022-12-25T18:59:06.567Z,76.90
2022-12-25T19:01:49.841Z,76.70
2022-12-25T19:04:32.861Z,68.80
2022-12-25T19:07:16.334Z,70.40
2022-12-25T19:09:59.372Z,78.00
2022-12-25T19:12:42.471Z,73.10
2022-12-25T19:15:25.322Z,69.20
2022-12-25T19:18:08.942Z,73.80
2022-12-25T19:20:51.835Z,77.60
2022-12-25T19:23:35.686Z,80.80
2022-12-25T19:26:18.990Z,80.10
2022-12-25T19:29:02.805Z,78.40
2022-12-25T19:31:47.676Z,76.50
2022-12-25T19:34:30.643Z,73.10
2022-12-25T19:37:15.184Z,84.10
2022-12-25T19:39:58.397Z,79.20
2022-12-25T19:42:41.559Z,78.40
2022-12-25T19:45:25.383Z,74.40
2022-12-25T19:48:08.343Z,74.50
2022-12-25T19:50:52.321Z,74.40
2022-12-25T19:53:35.248Z,87.00
2022-12-25T19:56:18.746Z,74.80
2022-12-25T19:59:01.945Z,78.70
2022-12-25T20:01:44.981Z,70.60
2022-12-25T20:04:28.016Z,72.30
2022-12-25T20:07:11.322Z,69.00
2022-12-25T20:09:54.145Z,73.90
2022-12-25T20:12:37.271Z,81.40
2022-12-25T20:15:20.588Z,71.70
2022-12-25T20:18:04.036Z,66.00
2022-12-25T20:20:46.903Z,70.50
2022-12-25T20:23:30.232Z,62.30
2022-12-25T20:26:15.223Z,66.30
2022-12-25T20:28:59.407Z,59.50
2022-12-25T20:31:42.310Z,64.40
2022-12-25T20:34:25.390Z,61.10
2022-12-25T20:37:08.305Z,61.40
2022-12-25T20:39:54.596Z,54.60
2022-12-25T20:42:37.613Z,62.00
2022-12-25T20:45:20.479Z,60.60
2022-12-25T20:48:05.261Z,57.50
2022-12-25T20:50:48.314Z,53.20
2022-12-25T20:53:31.291Z,53.40
2022-12-25T20:56:16.336Z,56.60
2022-12-25T20:59:00.413Z,63.10
2022-12-25T21:01:43.467Z,62.40
2022-12-25T21:04:26.575Z,60.00
2022-12-25T21:07:09.551Z,57.40
2022-12-25T21:09:52.479Z,67.20
2022-12-25T21:12:35.464Z,62.10
2022-12-25T21:15:18.522Z,67.20
2022-12-25T21:18:03.035Z,57.90
2022-12-25T21:20:55.004Z,58.30
2022-12-25T21:23:39.531Z,64.30
2022-12-25T21:26:28.684Z,69.60
2022-12-25T21:29:11.533Z,69.80
2022-12-25T21:32:16.636Z,69.90
2022-12-25T21:34:59.459Z,69.20
2022-12-25T21:37:42.354Z,61.60
2022-12-25T21:40:25.266Z,58.40
2022-12-25T21:43:08.173Z,59.70
2022-12-25T21:45:51.119Z,64.20
2022-12-25T21:48:36.432Z,65.70
2022-12-25T21:51:39.741Z,61.50
2022-12-25T21:54:23.705Z,62.80
2022-12-25T21:57:09.163Z,62.70
2022-12-25T21:59:51.974Z,64.30
2022-12-25T22:08:20.675Z,71.60
2022-12-25T22:11:04.495Z,66.70
2022-12-25T22:14:06.063Z,69.70
2022-12-25T22:17:07.617Z,69.10
2022-12-25T22:19:52.765Z,71.20
2022-12-25T22:22:36.119Z,67.00
2022-12-25T22:25:20.305Z,68.10
2022-12-25T22:28:03.399Z,67.70
2022-12-25T22:30:46.255Z,66.20
2022-12-25T22:33:30.506Z,62.80
2022-12-25T22:36:13.520Z,58.20
2022-12-25T22:38:56.420Z,60.00
2022-12-25T22:41:39.330Z,62.20
2022-12-25T22:44:26.282Z,65.80
2022-12-25T22:47:09.718Z,58.00
2022-12-25T22:49:52.576Z,58.60
2022-12-25T22:52:36.496Z,64.50
2022-12-25T22:55:20.224Z,59.30
2022-12-25T22:58:03.372Z,59.10
2022-12-25T23:00:47.317Z,58.40
2022-12-25T23:03:30.274Z,56.00
2022-12-25T23:06:13.446Z,48.10
2022-12-25T23:08:56.874Z,48.50
2022-12-25T23:11:39.918Z,56.70
2022-12-25T23:14:39.208Z,52.70
2022-12-25T23:17:41.031Z,50.20
2022-12-25T23:20:42.797Z,46.30
2022-12-25T23:23:44.461Z,54.70
2022-12-25T23:26:27.320Z,52.20
2022-12-25T23:29:50.579Z,54.90
2022-12-25T23:32:33.899Z,54.00
2022-12-25T23:35:16.719Z,52.90
2022-12-25T23:37:59.707Z,51.20
2022-12-25T23:40:42.524Z,48.80
2022-12-25T23:43:25.866Z,49.60
2022-12-25T23:46:08.800Z,49.80
2022-12-25T23:48:51.750Z,58.00
2022-12-25T23:51:40.008Z,54.40
2022-12-25T23:54:26.566Z,48.20
2022-12-25T23:57:09.443Z,51.00
2022-12-25T23:59:52.360Z,49.30
